Time;durP1;ratioP1;P1;durP2;ratioP2;P2;SDS_P1;SDS_P2;PMS_P1;PMS_P2;Temp;Humidity;BMP_temperature;BMP_pressure;BME280_temperature;BME280_humidity;BME280_pressure;Samples;Min_cycle;Max_cycle;Signal;HPM_P1;HPM_P2
2022/07/08 00:00:43;;;;;;;16.95;2.20;;;;;;;14.21;100.00;102665.06;5050710;28;20048;-80
2022/07/08 00:03:09;;;;;;;16.75;1.65;;;;;;;14.09;100.00;102666.75;5045755;28;20037;-80
2022/07/08 00:05:35;;;;;;;14.63;2.03;;;;;;;14.11;100.00;102664.78;5057207;28;20453;-80
2022/07/08 00:08:01;;;;;;;12.85;1.80;;;;;;;14.06;100.00;102677.97;5049723;28;20037;-80
2022/07/08 00:10:27;;;;;;;12.13;2.10;;;;;;;14.05;100.00;102678.97;5044788;28;20022;-78
2022/07/08 00:12:53;;;;;;;13.25;2.35;;;;;;;14.10;100.00;102679.56;5047313;28;20040;-80
2022/07/08 00:15:20;;;;;;;11.32;2.25;;;;;;;14.02;100.00;102676.41;5023111;28;20519;-79
2022/07/08 00:17:46;;;;;;;19.73;2.47;;;;;;;14.12;100.00;102679.47;5040958;28;20033;-79
2022/07/08 00:20:12;;;;;;;11.25;2.10;;;;;;;14.07;100.00;102684.34;5042836;28;20499;-79
2022/07/08 00:22:37;;;;;;;16.75;2.25;;;;;;;13.92;100.00;102686.22;5044435;28;20091;-81
2022/07/08 00:25:04;;;;;;;12.60;2.22;;;;;;;13.96;100.00;102691.44;5046275;28;20136;-79
2022/07/08 00:27:29;;;;;;;13.65;2.25;;;;;;;14.06;100.00;102686.22;5041820;28;20045;-78
2022/07/08 00:29:55;;;;;;;16.27;3.20;;;;;;;14.04;100.00;102679.06;5022395;28;20036;-81
2022/07/08 00:32:21;;;;;;;15.23;2.65;;;;;;;14.06;100.00;102675.22;5030894;28;20387;-80
2022/07/08 00:34:47;;;;;;;11.38;2.42;;;;;;;14.07;100.00;102681.59;5031472;28;20049;-80
2022/07/08 00:37:12;;;;;;;19.63;3.40;;;;;;;13.93;100.00;102658.59;5023775;28;20072;-82
2022/07/08 00:39:38;;;;;;;13.52;2.30;;;;;;;14.24;100.00;102686.03;5037737;28;20067;-80
2022/07/08 00:42:05;;;;;;;19.48;2.97;;;;;;;14.27;100.00;102689.47;5045269;28;20392;-80
2022/07/08 00:44:30;;;;;;;9.82;2.65;;;;;;;14.25;100.00;102680.44;5035964;28;20118;-80
2022/07/08 00:46:56;;;;;;;19.85;2.88;;;;;;;14.25;100.00;102682.28;5038135;28;20045;-80
2022/07/08 00:49:23;;;;;;;9.55;3.05;;;;;;;14.29;100.00;102678.34;5049434;28;20376;-79
2022/07/08 00:51:48;;;;;;;13.23;2.30;;;;;;;14.39;100.00;102679.50;5045247;28;20093;-80
2022/07/08 00:54:16;;;;;;;18.58;2.30;;;;;;;14.33;100.00;102677.13;5027575;28;20052;-79
2022/07/08 00:56:42;;;;;;;13.80;2.53;;;;;;;14.38;100.00;102682.34;5043464;28;20033;-80
2022/07/08 00:59:09;;;;;;;14.25;2.70;;;;;;;14.37;100.00;102684.25;5037656;28;20044;-80
2022/07/08 01:01:35;;;;;;;17.30;2.85;;;;;;;14.29;100.00;102678.34;5042866;28;20034;-80
2022/07/08 01:04:01;;;;;;;13.82;2.92;;;;;;;14.18;100.00;102684.53;5033667;28;20060;-80
2022/07/08 01:06:27;;;;;;;12.88;2.78;;;;;;;14.23;100.00;102681.50;5034014;28;20039;-81
2022/07/08 01:08:52;;;;;;;12.82;2.22;;;;;;;14.13;100.00;102686.72;5028167;28;20040;-79
2022/07/08 01:11:19;;;;;;;17.88;3.08;;;;;;;14.06;100.00;102680.72;5020695;28;20065;-80
2022/07/08 01:13:46;;;;;;;20.30;2.47;;;;;;;14.08;100.00;102692.53;5045912;28;20024;-80
2022/07/08 01:16:11;;;;;;;15.45;3.05;;;;;;;14.07;100.00;102689.88;5022155;28;20052;-80
2022/07/08 01:18:39;;;;;;;19.88;2.65;;;;;;;13.98;100.00;102697.72;5036867;28;20033;-81
2022/07/08 01:21:05;;;;;;;17.00;3.70;;;;;;;14.03;100.00;102691.94;5040518;28;20040;-80
2022/07/08 01:23:30;;;;;;;14.43;2.78;;;;;;;14.02;100.00;102687.44;5042414;28;20488;-82
2022/07/08 01:25:58;;;;;;;16.35;2.53;;;;;;;14.10;100.00;102685.06;5043950;28;20037;-79
2022/07/08 01:28:23;;;;;;;11.65;3.03;;;;;;;13.99;100.00;102690.38;5045646;28;20040;-80
2022/07/08 01:30:49;;;;;;;11.48;2.50;;;;;;;13.98;100.00;102686.72;5047084;28;20108;-80
2022/07/08 01:33:15;;;;;;;17.02;2.58;;;;;;;14.03;100.00;102680.03;5028351;28;20141;-80
2022/07/08 01:35:40;;;;;;;13.57;2.53;;;;;;;14.00;100.00;102686.63;5030107;28;20160;-80
2022/07/08 01:38:06;;;;;;;20.85;2.55;;;;;;;14.01;100.00;102688.41;5045546;28;20037;-81
2022/07/08 01:40:31;;;;;;;24.27;2.90;;;;;;;14.05;100.00;102680.81;4996405;28;20029;-80
2022/07/08 01:42:57;;;;;;;20.45;2.42;;;;;;;14.00;100.00;102670.09;5050875;28;20028;-79
2022/07/08 01:45:23;;;;;;;17.35;2.72;;;;;;;13.87;100.00;102674.63;5025633;28;20496;-80
2022/07/08 01:47:48;;;;;;;20.98;2.50;;;;;;;13.83;100.00;102678.56;5026521;28;20064;-81
2022/07/08 01:50:14;;;;;;;19.20;2.20;;;;;;;13.79;100.00;102681.53;5053186;28;20385;-78
2022/07/08 01:52:40;;;;;;;19.15;3.30;;;;;;;13.85;100.00;102677.47;5050821;28;20060;-78
2022/07/08 01:55:06;;;;;;;12.35;2.22;;;;;;;13.63;100.00;102657.81;5048128;28;20040;-81
2022/07/08 01:57:31;;;;;;;13.73;2.70;;;;;;;13.67;100.00;102671.28;5013434;28;20123;-81
2022/07/08 01:59:57;;;;;;;18.02;2.95;;;;;;;13.65;100.00;102676.00;5041877;28;20014;-81
2022/07/08 02:02:23;;;;;;;15.90;4.35;;;;;;;13.57;100.00;102679.22;5022363;28;20028;-79
2022/07/08 02:04:49;;;;;;;12.70;2.45;;;;;;;13.44;100.00;102669.97;5036029;28;20064;-81
2022/07/08 02:07:15;;;;;;;11.40;2.65;;;;;;;13.57;100.00;102681.97;5037866;28;20068;-81
2022/07/08 02:09:41;;;;;;;12.25;2.42;;;;;;;13.52;100.00;102678.63;5026225;28;20022;-80
2022/07/08 02:12:20;;;;;;;17.50;2.80;;;;;;;13.50;100.00;102676.97;5050819;28;20089;-81
2022/07/08 02:14:53;;;;;;;14.02;2.65;;;;;;;13.55;100.00;102686.69;5037407;28;20392;-80
2022/07/08 02:17:20;;;;;;;15.07;3.15;;;;;;;13.37;100.00;102679.59;5031137;28;20108;-80
2022/07/08 02:19:46;;;;;;;10.43;2.80;;;;;;;13.46;100.00;102683.63;5047775;28;20051;-80
2022/07/08 02:22:13;;;;;;;12.18;3.03;;;;;;;13.37;100.00;102674.97;5041444;28;20033;-82
2022/07/08 02:24:39;;;;;;;12.57;3.22;;;;;;;13.30;100.00;102679.06;5050628;28;20036;-81
2022/07/08 02:27:06;;;;;;;11.15;3.67;;;;;;;13.25;100.00;102683.94;5047017;28;20025;-81
2022/07/08 02:29:33;;;;;;;17.60;4.75;;;;;;;13.20;100.00;102686.97;5035128;28;20106;-80
2022/07/08 02:31:59;;;;;;;12.63;2.78;;;;;;;13.11;100.00;102682.03;5049025;28;20039;-80
2022/07/08 02:34:25;;;;;;;16.70;3.22;;;;;;;13.02;100.00;102679.84;5051496;28;20841;-81
2022/07/08 02:36:51;;;;;;;18.88;3.58;;;;;;;13.14;100.00;102683.72;5038619;28;20056;-81
2022/07/08 02:39:16;;;;;;;17.58;2.75;;;;;;;13.04;100.00;102687.00;5039218;28;20044;-82
2022/07/08 02:41:42;;;;;;;18.92;3.30;;;;;;;12.98;100.00;102684.63;5019730;28;20056;-81
2022/07/08 02:44:08;;;;;;;8.25;2.97;;;;;;;13.22;100.00;102693.25;5034322;28;20037;-83
2022/07/08 02:46:35;;;;;;;16.88;3.28;;;;;;;13.08;100.00;102682.22;5032443;28;20116;-83
2022/07/08 02:49:00;;;;;;;22.10;3.47;;;;;;;13.11;100.00;102682.03;5040970;28;20025;-81
2022/07/08 02:51:26;;;;;;;13.07;3.85;;;;;;;13.11;100.00;102690.28;5059546;28;20396;-79
2022/07/08 02:53:52;;;;;;;13.35;3.45;;;;;;;12.98;100.00;102679.13;5041093;28;20034;-81
2022/07/08 02:56:17;;;;;;;10.65;3.92;;;;;;;13.04;100.00;102687.00;5049923;28;20516;-80
2022/07/08 02:58:43;;;;;;;25.80;4.38;;;;;;;13.01;100.00;102684.44;5029093;28;20096;-80
2022/07/08 03:01:08;;;;;;;17.40;4.07;;;;;;;12.99;100.00;102693.78;5055382;28;20040;-81
2022/07/08 03:03:34;;;;;;;17.25;5.53;;;;;;;13.04;100.00;102688.88;5046456;28;20033;-81
2022/07/08 03:06:00;;;;;;;18.00;5.40;;;;;;;13.03;100.00;102689.84;5036392;28;20044;-79
2022/07/08 03:08:25;;;;;;;20.85;4.68;;;;;;;12.87;100.00;102699.03;5044461;28;20045;-81
2022/07/08 03:10:51;;;;;;;22.13;5.95;;;;;;;12.84;100.00;102690.09;5039375;28;20029;-80
2022/07/08 03:13:16;;;;;;;21.40;5.68;;;;;;;12.81;100.00;102690.25;5043568;28;20033;-79
2022/07/08 03:15:42;;;;;;;22.48;7.38;;;;;;;12.80;100.00;102686.59;5042735;28;20045;-80
2022/07/08 03:18:07;;;;;;;30.33;7.22;;;;;;;12.80;100.00;102691.22;5043696;28;20033;-81
2022/07/08 03:20:33;;;;;;;21.17;6.22;;;;;;;12.82;100.00;102690.16;5047534;28;20021;-81
2022/07/08 03:22:59;;;;;;;28.13;6.72;;;;;;;12.69;100.00;102695.50;5047073;28;20037;-81
2022/07/08 03:25:29;;;;;;;26.23;7.30;;;;;;;12.59;100.00;102694.28;5042074;28;20029;-81
2022/07/08 03:27:55;;;;;;;29.63;7.97;;;;;;;12.48;100.00;102694.00;5040471;28;20091;-80
2022/07/08 03:30:21;;;;;;;26.38;7.00;;;;;;;12.53;100.00;102694.63;5036213;28;20029;-81
2022/07/08 03:32:47;;;;;;;20.83;6.82;;;;;;;12.61;100.00;102692.31;5020794;28;20069;-81
2022/07/08 03:35:12;;;;;;;33.83;6.57;;;;;;;12.74;100.00;102700.72;5036896;28;20040;-79
2022/07/08 03:37:43;;;;;;;21.80;6.50;;;;;;;12.64;100.00;102696.72;5057231;28;20477;-80
2022/07/08 03:42:54;;;;;;;23.73;6.22;;;;;;;12.68;100.00;102704.72;5031871;28;20124;-80
2022/07/08 03:45:19;;;;;;;27.20;7.22;;;;;;;12.74;100.00;102705.31;5029781;28;20080;-81
2022/07/08 03:47:45;;;;;;;21.42;6.93;;;;;;;12.66;100.00;102714.03;5042737;28;20056;-79
2022/07/08 03:50:10;;;;;;;34.83;6.32;;;;;;;12.67;100.00;102708.47;5036798;28;20036;-79
2022/07/08 03:52:36;;;;;;;15.95;5.82;;;;;;;12.68;100.00;102706.59;5029950;28;20037;-80
2022/07/08 03:55:02;;;;;;;20.02;5.68;;;;;;;12.72;100.00;102708.16;5051239;28;20036;-81
2022/07/08 03:57:27;;;;;;;22.45;5.22;;;;;;;12.68;100.00;102710.22;5018639;28;20086;-79
2022/07/08 03:59:53;;;;;;;29.17;5.55;;;;;;;12.68;100.00;102706.59;5045490;28;20030;-80
2022/07/08 04:02:18;;;;;;;25.42;5.93;;;;;;;12.80;100.00;102707.72;5014328;28;20030;-80
2022/07/08 04:04:44;;;;;;;21.88;5.90;;;;;;;12.80;100.00;102713.22;5038617;28;20065;-81
2022/07/08 04:07:09;;;;;;;24.83;5.22;;;;;;;12.76;100.00;102714.38;5015244;28;20036;-80
2022/07/08 04:09:35;;;;;;;18.77;4.68;;;;;;;12.71;100.00;102711.00;5037231;28;20307;-80
2022/07/08 04:12:00;;;;;;;18.70;4.15;;;;;;;12.75;100.00;102705.22;5043790;28;20087;-80
2022/07/08 04:14:26;;;;;;;30.27;5.47;;;;;;;12.81;100.00;102707.63;5043143;28;20043;-80
2022/07/08 04:16:52;;;;;;;19.42;4.60;;;;;;;12.82;100.00;102708.50;5047617;28;20104;-79
2022/07/08 04:19:17;;;;;;;28.70;4.65;;;;;;;12.80;100.00;102716.84;5053494;28;20415;-80
2022/07/08 04:21:43;;;;;;;22.20;4.57;;;;;;;12.83;100.00;102715.78;5055636;28;20032;-81
2022/07/08 04:24:08;;;;;;;23.55;4.90;;;;;;;12.81;100.00;102710.38;5030910;28;20059;-81
2022/07/08 04:26:37;;;;;;;24.48;4.88;;;;;;;12.93;100.00;102703.25;5041008;28;20034;-81
2022/07/08 04:29:03;;;;;;;19.95;4.70;;;;;;;12.97;100.00;102710.38;5046078;28;20449;-81
2022/07/08 04:31:29;;;;;;;21.00;3.97;;;;;;;13.01;100.00;102716.56;5037074;28;20037;-81
2022/07/08 04:33:54;;;;;;;20.42;4.43;;;;;;;13.08;100.00;102719.84;5028636;28;20041;-80
2022/07/08 04:36:21;;;;;;;17.92;4.30;;;;;;;13.06;100.00;102697.91;5026200;28;20443;-80
2022/07/08 04:38:46;;;;;;;16.65;4.28;;;;;;;13.16;100.00;102718.38;5045677;28;20048;-81
2022/07/08 04:41:12;;;;;;;27.88;5.07;;;;;;;13.17;100.00;102711.91;5020927;28;20029;-80
2022/07/08 04:43:38;;;;;;;21.50;4.40;;;;;;;13.24;100.00;102712.44;5035766;28;20440;-80
2022/07/08 04:46:04;;;;;;;27.02;4.50;;;;;;;13.13;100.00;102725.94;5033729;28;20025;-81
2022/07/08 04:48:31;;;;;;;20.30;4.88;;;;;;;13.27;100.00;102727.88;5030422;28;20035;-80
2022/07/08 04:50:56;;;;;;;22.75;5.18;;;;;;;13.23;100.00;102727.16;5009604;28;20045;-80
2022/07/08 04:53:22;;;;;;;29.38;5.07;;;;;;;13.30;100.00;102733.16;5029699;28;20029;-80
2022/07/08 04:55:48;;;;;;;18.13;4.57;;;;;;;13.30;100.00;102739.56;5050351;28;20032;-80
2022/07/08 04:58:14;;;;;;;21.38;4.90;;;;;;;13.42;100.00;102737.97;5049605;28;20029;-80
2022/07/08 05:00:40;;;;;;;19.83;5.55;;;;;;;13.52;100.00;102739.16;5052271;28;20025;-80
2022/07/08 05:03:05;;;;;;;21.77;4.53;;;;;;;13.58;100.00;102746.19;5014790;28;20053;-80
2022/07/08 05:05:31;;;;;;;25.98;6.78;;;;;;;13.63;100.00;102745.91;5053879;28;20108;-78
2022/07/08 05:07:57;;;;;;;22.20;4.97;;;;;;;13.66;100.00;102745.69;5052304;28;20036;-79
2022/07/08 05:10:23;;;;;;;16.67;5.60;;;;;;;13.74;100.00;102749.75;5046335;28;20034;-78
2022/07/08 05:12:49;;;;;;;26.85;5.45;;;;;;;13.90;100.00;102749.66;5047686;28;20063;-79
2022/07/08 05:15:15;;;;;;;26.42;5.60;;;;;;;13.89;100.00;102750.66;5022893;28;20045;-79
2022/07/08 05:17:41;;;;;;;28.08;5.78;;;;;;;13.90;100.00;102746.03;5050779;28;20067;-80
2022/07/08 05:20:09;;;;;;;23.27;5.25;;;;;;;13.95;100.00;102750.28;5057938;28;20029;-80
2022/07/08 05:22:36;;;;;;;20.25;5.43;;;;;;;14.02;100.00;102747.13;5054525;28;20040;-78
2022/07/08 05:25:03;;;;;;;35.33;8.30;;;;;;;14.21;100.00;102746.84;5036642;28;20497;-78
2022/07/08 05:27:28;;;;;;;20.45;5.75;;;;;;;14.31;100.00;102756.28;5057530;28;20037;-81
2022/07/08 05:29:54;;;;;;;48.58;7.22;;;;;;;14.36;100.00;102756.88;5038118;28;20404;-79
2022/07/08 05:32:19;;;;;;;20.85;5.43;;;;;;;14.60;100.00;102764.56;5060510;28;20041;-79
2022/07/08 05:34:45;;;;;;;18.10;5.30;;;;;;;14.67;100.00;102771.44;5021982;28;20049;-80
2022/07/08 05:37:11;;;;;;;21.55;4.88;;;;;;;14.92;100.00;102778.09;5030164;28;20091;-79
2022/07/08 05:39:39;;;;;;;22.75;4.88;;;;;;;15.20;100.00;102783.53;5039791;28;20022;-78
2022/07/08 05:42:09;;;;;;;15.52;5.40;;;;;;;15.49;100.00;102780.63;5044401;28;20025;-80
2022/07/08 05:44:36;;;;;;;16.38;4.70;;;;;;;16.08;100.00;102776.56;5041362;28;20075;-78
2022/07/08 05:47:07;;;;;;;17.85;5.38;;;;;;;15.67;100.00;102780.34;5055585;28;20053;-82
2022/07/08 05:49:34;;;;;;;23.73;5.55;;;;;;;15.88;100.00;102773.34;5042857;28;20025;-80
2022/07/08 05:52:00;;;;;;;29.05;5.63;;;;;;;15.92;100.00;102783.19;5038005;28;20033;-77
2022/07/08 05:54:27;;;;;;;30.50;5.57;;;;;;;16.22;100.00;102778.34;5024107;28;20090;-77
2022/07/08 05:56:52;;;;;;;20.00;4.50;;;;;;;16.49;100.00;102786.47;5026547;28;20041;-77
2022/07/08 05:59:18;;;;;;;22.48;4.85;;;;;;;16.49;100.00;102784.59;5040100;28;20147;-77
2022/07/08 06:01:43;;;;;;;19.48;5.40;;;;;;;16.80;100.00;102789.75;5040859;28;20033;-77
2022/07/08 06:04:09;;;;;;;17.65;5.00;;;;;;;17.24;100.00;102785.53;5023630;28;20033;-78
2022/07/08 06:06:34;;;;;;;25.40;4.35;;;;;;;17.35;100.00;102790.22;5024233;28;20105;-77
2022/07/08 06:09:00;;;;;;;29.10;5.40;;;;;;;17.55;100.00;102792.34;5039294;28;20029;-78
2022/07/08 06:11:26;;;;;;;25.92;4.35;;;;;;;17.58;100.00;102791.25;5027322;28;20049;-78
2022/07/08 06:13:53;;;;;;;22.33;4.55;;;;;;;17.29;100.00;102796.25;5038516;28;20120;-77
2022/07/08 06:16:20;;;;;;;15.50;4.07;;;;;;;17.35;100.00;102791.13;5028747;28;20033;-78
2022/07/08 06:18:46;;;;;;;15.07;3.63;;;;;;;17.70;100.00;102803.25;5020058;28;20203;-77
2022/07/08 06:21:11;;;;;;;19.67;4.18;;;;;;;17.64;100.00;102796.28;5051508;28;20112;-77
2022/07/08 06:23:37;;;;;;;21.95;3.70;;;;;;;17.77;100.00;102797.09;5047301;28;20469;-78
2022/07/08 06:26:02;;;;;;;23.75;4.35;;;;;;;17.80;100.00;102794.06;5046831;28;20068;-78
2022/07/08 06:28:28;;;;;;;20.60;4.10;;;;;;;17.41;100.00;102804.50;5032569;28;20033;-79
2022/07/08 06:30:53;;;;;;;22.98;4.05;;;;;;;17.75;100.00;102798.22;5042860;28;20029;-78
2022/07/08 06:33:19;;;;;;;22.77;4.15;;;;;;;18.00;100.00;102806.41;5041777;28;20053;-78
2022/07/08 06:35:44;;;;;;;24.58;3.90;;;;;;;18.05;100.00;102803.22;5042217;28;20091;-80
2022/07/08 06:38:10;;;;;;;16.63;3.72;;;;;;;18.28;100.00;102806.03;5051530;28;20493;-79
2022/07/08 06:40:36;;;;;;;18.98;3.08;;;;;;;18.74;100.00;102803.19;5041944;28;20172;-77
2022/07/08 06:43:02;;;;;;;22.42;3.72;;;;;;;18.52;100.00;102805.94;5048970;28;20029;-76
2022/07/08 06:45:31;;;;;;;13.60;3.05;;;;;;;19.17;100.00;102807.06;5041833;28;20036;-77
2022/07/08 06:48:00;;;;;;;13.18;3.25;;;;;;;19.21;100.00;102805.75;5024546;28;20512;-76
2022/07/08 06:50:26;;;;;;;20.33;3.30;;;;;;;19.83;100.00;102818.06;5038124;28;20040;-76
2022/07/08 06:52:52;;;;;;;14.70;3.03;;;;;;;19.37;100.00;102815.59;5046869;28;20052;-76
2022/07/08 06:55:17;;;;;;;20.23;3.25;;;;;;;19.20;100.00;102815.13;5040805;28;20044;-76
2022/07/08 06:57:44;;;;;;;14.95;2.83;;;;;;;19.68;100.00;102818.47;5044612;28;20461;-76
2022/07/08 07:00:10;;;;;;;15.73;3.60;;;;;;;19.33;100.00;102817.72;5042713;28;20033;-75
2022/07/08 07:02:35;;;;;;;14.48;3.38;;;;;;;19.00;100.00;102824.25;5030237;28;20045;-76
2022/07/08 07:05:02;;;;;;;25.85;3.70;;;;;;;19.94;100.00;102821.78;5019605;28;20029;-75
2022/07/08 07:07:27;;;;;;;21.95;2.85;;;;;;;20.16;100.00;102824.44;5053124;28;20124;-77
2022/07/08 07:09:54;;;;;;;20.17;3.38;;;;;;;19.58;100.00;102823.97;5036916;28;20041;-76
2022/07/08 07:12:20;;;;;;;17.23;3.28;;;;;;;20.44;100.00;102819.19;5042164;28;20047;-76
2022/07/08 07:14:45;;;;;;;14.38;3.17;;;;;;;20.49;100.00;102825.22;5048884;28;20041;-75
2022/07/08 07:17:11;;;;;;;21.95;3.40;;;;;;;20.35;100.00;102818.13;5041663;28;20037;-76
2022/07/08 07:19:37;;;;;;;23.88;4.05;;;;;;;20.77;100.00;102819.09;5050392;28;20086;-77
2022/07/08 07:22:03;;;;;;;18.77;2.80;;;;;;;20.91;99.49;102818.72;5034484;28;20045;-77
2022/07/08 07:24:28;;;;;;;16.50;2.42;;;;;;;21.20;97.70;102818.78;5048855;28;20029;-76
2022/07/08 07:26:54;;;;;;;16.92;2.38;;;;;;;19.84;100.00;102821.75;5035010;28;20106;-77
2022/07/08 07:29:20;;;;;;;19.13;3.15;;;;;;;20.57;100.00;102818.97;5044760;28;20423;-77
2022/07/08 07:31:45;;;;;;;18.50;3.28;;;;;;;20.78;99.81;102823.66;5019062;28;20037;-76
2022/07/08 07:34:11;;;;;;;15.32;2.35;;;;;;;21.59;97.48;102823.56;5034440;28;20050;-77
2022/07/08 07:36:37;;;;;;;14.13;2.53;;;;;;;21.07;98.17;102824.63;5037710;28;20053;-76
2022/07/08 07:39:03;;;;;;;19.00;2.63;;;;;;;21.19;97.82;102827.28;5038837;28;20088;-77
2022/07/08 07:41:29;;;;;;;17.48;2.33;;;;;;;20.60;99.88;102815.03;5037028;28;20037;-76
2022/07/08 07:43:54;;;;;;;12.55;2.70;;;;;;;19.75;100.00;102820.63;5038433;28;20112;-76
2022/07/08 07:46:20;;;;;;;17.40;3.25;;;;;;;19.39;100.00;102816.31;5042060;28;20111;-77
2022/07/08 07:48:45;;;;;;;21.00;2.75;;;;;;;19.44;100.00;102817.69;5040175;28;20041;-78
2022/07/08 07:51:11;;;;;;;17.10;2.72;;;;;;;19.87;100.00;102821.44;5032271;28;20025;-79
2022/07/08 07:53:37;;;;;;;10.63;2.60;;;;;;;19.63;100.00;102816.13;5030082;28;20464;-79
2022/07/08 07:56:03;;;;;;;13.25;2.03;;;;;;;20.86;98.03;102810.78;5010588;28;20040;-80
2022/07/08 07:58:28;;;;;;;15.30;1.98;;;;;;;22.00;91.50;102810.31;5033179;28;20037;-78
2022/07/08 08:00:54;;;;;;;13.43;2.13;;;;;;;20.99;95.08;102810.53;5020070;28;20092;-78
2022/07/08 08:03:20;;;;;;;10.45;2.20;;;;;;;22.43;86.62;102819.22;5038849;28;20041;-79
2022/07/08 08:05:46;;;;;;;17.20;1.90;;;;;;;21.09;93.20;102816.13;5049014;28;20510;-79
2022/07/08 08:08:12;;;;;;;8.55;1.63;;;;;;;21.97;85.48;102816.19;5038276;28;20025;-78
2022/07/08 08:10:37;;;;;;;10.93;1.73;;;;;;;20.44;96.96;102819.19;5036334;28;20029;-79
2022/07/08 08:13:04;;;;;;;18.17;2.30;;;;;;;20.19;97.52;102818.59;5039288;28;20040;-79
2022/07/08 08:15:30;;;;;;;10.45;1.90;;;;;;;20.39;99.30;102811.25;5055689;28;20089;-79
2022/07/08 08:17:59;;;;;;;12.35;1.95;;;;;;;21.88;89.10;102811.53;5041156;28;20037;-77
2022/07/08 08:20:27;;;;;;;12.48;1.88;;;;;;;20.88;97.77;102819.84;5056091;28;20068;-77
2022/07/08 08:22:53;;;;;;;12.00;2.40;;;;;;;21.15;95.61;102811.88;5039492;28;20555;-80
2022/07/08 08:25:19;;;;;;;15.38;2.13;;;;;;;20.78;99.79;102818.06;5052548;28;20041;-76
2022/07/08 08:27:44;;;;;;;17.67;2.17;;;;;;;20.80;99.05;102819.69;5037096;28;20029;-78
2022/07/08 08:30:11;;;;;;;17.52;2.40;;;;;;;20.92;98.29;102817.66;5029990;28;20115;-78
2022/07/08 08:32:37;;;;;;;16.13;1.77;;;;;;;20.13;100.00;102835.84;5054837;28;20044;-78
2022/07/08 08:35:03;;;;;;;10.02;1.73;;;;;;;21.42;98.13;102828.78;5041140;28;20082;-78
2022/07/08 08:37:29;;;;;;;15.68;1.90;;;;;;;21.94;93.35;102824.84;5055573;28;20033;-79
2022/07/08 08:39:54;;;;;;;12.48;1.88;;;;;;;22.14;89.56;102828.53;5048634;28;20041;-78
2022/07/08 08:42:20;;;;;;;10.38;1.95;;;;;;;22.19;90.42;102829.81;5016568;28;20037;-78
2022/07/08 08:44:49;;;;;;;10.48;1.98;;;;;;;22.62;87.62;102835.03;5056760;28;20104;-78
2022/07/08 08:47:26;;;;;;;10.90;1.98;;;;;;;22.24;89.52;102828.50;5040878;28;20024;-79
2022/07/08 08:49:55;;;;;;;14.60;1.90;;;;;;;22.12;90.71;102828.66;5056101;28;20037;-78
2022/07/08 08:52:26;;;;;;;21.40;2.08;;;;;;;22.69;89.09;102830.59;5040532;28;20037;-79
2022/07/08 08:54:53;;;;;;;10.38;2.00;;;;;;;23.01;85.37;102826.47;5042430;28;20032;-79
2022/07/08 08:57:20;;;;;;;14.68;1.52;;;;;;;22.65;86.87;102832.81;5048176;28;20044;-80
2022/07/08 08:59:46;;;;;;;18.63;2.00;;;;;;;23.21;85.99;102830.94;5032188;28;20037;-77
2022/07/08 09:02:12;;;;;;;16.90;1.63;;;;;;;21.89;92.26;102818.84;5038889;28;20025;-76
2022/07/08 09:04:39;;;;;;;9.25;1.48;;;;;;;22.54;87.48;102819.91;5037889;28;20041;-77
2022/07/08 09:07:05;;;;;;;12.80;1.67;;;;;;;23.47;85.05;102819.88;5036597;28;20029;-76
2022/07/08 09:09:30;;;;;;;16.38;2.15;;;;;;;22.87;81.62;102819.47;5020374;28;20025;-76
2022/07/08 09:11:56;;;;;;;13.77;2.53;;;;;;;23.14;81.63;102818.63;5008307;28;20386;-76
2022/07/08 09:14:23;;;;;;;10.38;2.10;;;;;;;23.44;80.66;102819.31;5051023;28;20037;-77
2022/07/08 09:17:13;;;;;;;15.60;1.85;;;;;;;24.02;74.86;102815.16;5045561;28;20040;-77
2022/07/08 09:19:41;;;;;;;13.93;2.25;;;;;;;23.41;80.88;102812.09;5032690;28;20064;-76
2022/07/08 09:22:09;;;;;;;9.25;1.88;;;;;;;23.44;82.83;102809.00;5034513;28;20036;-75
2022/07/08 09:24:36;;;;;;;18.85;2.50;;;;;;;23.75;77.67;102819.78;5044457;28;20088;-76
2022/07/08 09:27:06;;;;;;;11.30;1.85;;;;;;;24.06;75.07;102813.78;5023530;28;20033;-76
2022/07/08 09:29:32;;;;;;;14.63;2.40;;;;;;;24.09;73.67;102818.16;5039932;28;20039;-76
2022/07/08 09:32:18;;;;;;;7.55;1.60;;;;;;;24.46;70.13;102815.09;5034340;28;20137;-77
2022/07/08 09:34:44;;;;;;;10.10;2.00;;;;;;;24.30;67.41;102806.59;5003348;28;20098;-77
2022/07/08 09:37:15;;;;;;;9.38;1.80;;;;;;;23.78;68.42;102813.00;5029282;28;20041;-76
2022/07/08 09:39:42;;;;;;;11.50;2.10;;;;;;;23.89;68.71;102798.81;5022297;28;20034;-77
2022/07/08 09:42:08;;;;;;;10.80;2.25;;;;;;;23.68;71.27;102801.91;5042452;28;20052;-77
2022/07/08 09:44:35;;;;;;;12.05;1.60;;;;;;;23.45;74.83;102793.13;4988138;28;20029;-77
2022/07/08 09:47:08;;;;;;;10.35;1.88;;;;;;;24.13;71.65;102802.81;5029277;28;20056;-77
2022/07/08 09:49:34;;;;;;;8.55;1.33;;;;;;;23.73;73.86;102804.22;5045131;28;20036;-77
2022/07/08 09:52:00;;;;;;;11.30;1.63;;;;;;;23.48;73.38;102809.56;5044676;28;20065;-78
2022/07/08 09:54:27;;;;;;;14.25;1.98;;;;;;;23.61;71.94;102801.66;5030438;28;20159;-77
2022/07/08 09:57:03;;;;;;;10.60;1.42;;;;;;;23.52;75.00;102804.53;5022888;28;20078;-77
2022/07/08 09:59:30;;;;;;;8.48;1.92;;;;;;;22.89;73.76;102800.63;5037064;28;20040;-76
2022/07/08 10:01:57;;;;;;;10.15;1.95;;;;;;;23.59;74.00;102797.25;5037809;28;20037;-77
2022/07/08 10:04:25;;;;;;;9.70;1.70;;;;;;;23.68;72.53;102801.91;5028064;28;20079;-77
2022/07/08 10:06:53;;;;;;;7.82;1.58;;;;;;;24.41;70.64;102800.72;5039763;28;20083;-77
2022/07/08 10:09:22;;;;;;;9.48;2.40;;;;;;;24.12;74.57;102801.94;5039432;28;20029;-78
2022/07/08 10:11:48;;;;;;;12.80;2.00;;;;;;;24.12;70.14;102799.16;5049085;28;20045;-78
2022/07/08 10:14:15;;;;;;;10.50;1.65;;;;;;;23.75;75.50;102793.75;5045543;28;20048;-79
2022/07/08 10:16:42;;;;;;;16.70;2.38;;;;;;;23.80;75.64;102800.59;5044746;28;20071;-80
2022/07/08 10:19:15;;;;;;;12.38;1.80;;;;;;;23.65;74.08;102794.69;5038305;28;20050;-79
2022/07/08 10:21:45;;;;;;;10.20;2.03;;;;;;;23.87;78.67;102795.25;5042975;28;20099;-80
2022/07/08 10:24:17;;;;;;;8.85;2.25;;;;;;;23.58;77.67;102792.69;5050208;28;20569;-81
2022/07/08 10:26:44;;;;;;;8.48;1.70;;;;;;;23.51;76.98;102800.84;5030979;28;20075;-79
2022/07/08 10:29:13;;;;;;;11.88;1.88;;;;;;;23.99;74.71;102793.09;5018192;28;20126;-81
2022/07/08 10:31:46;;;;;;;7.05;1.60;;;;;;;24.18;75.25;102797.59;5036364;28;20029;-82
2022/07/08 10:34:13;;;;;;;9.52;1.73;;;;;;;24.70;72.07;102791.13;5025543;28;20107;-81
2022/07/08 10:36:53;;;;;;;9.48;1.77;;;;;;;25.05;71.31;102789.16;5040809;28;20041;-79
2022/07/08 10:39:31;;;;;;;7.30;1.65;;;;;;;25.23;68.88;102789.91;5048610;28;20047;-80
2022/07/08 10:42:05;;;;;;;10.77;1.60;;;;;;;25.48;70.64;102792.78;5041412;28;20041;-79
2022/07/08 10:44:46;;;;;;;13.80;2.40;;;;;;;25.35;69.80;102792.41;5033552;28;20037;-78
2022/07/08 10:47:13;;;;;;;10.18;2.35;;;;;;;24.82;72.28;102789.75;5054923;28;20029;-80
2022/07/08 10:49:44;;;;;;;10.27;2.15;;;;;;;24.83;71.93;102779.47;5046145;28;20045;-80
2022/07/08 10:52:10;;;;;;;8.93;1.70;;;;;;;25.64;70.50;102784.38;5036708;28;20124;-80
2022/07/08 10:54:39;;;;;;;12.15;2.50;;;;;;;25.11;69.55;102794.09;5017916;28;20114;-80
2022/07/08 10:57:13;;;;;;;8.27;1.65;;;;;;;24.90;69.41;102788.94;5036528;28;20037;-80
2022/07/08 10:59:39;;;;;;;14.15;1.63;;;;;;;24.90;70.30;102783.31;5043986;28;20102;-79
2022/07/08 11:02:13;;;;;;;18.30;1.75;;;;;;;25.27;68.54;102787.69;5024701;28;20037;-78
2022/07/08 11:04:39;;;;;;;7.47;1.73;;;;;;;25.16;66.54;102783.22;5028894;28;20052;-79
2022/07/08 11:07:17;;;;;;;10.93;2.17;;;;;;;25.90;66.52;102783.34;5045592;28;20035;-78
2022/07/08 11:09:48;;;;;;;12.40;2.15;;;;;;;25.75;66.01;102780.38;5055502;28;20036;-79
2022/07/08 11:12:21;;;;;;;8.15;1.65;;;;;;;25.22;67.20;102787.25;5040364;28;20029;-78